Time;durP1;ratioP1;P1;durP2;ratioP2;P2;SDS_P1;SDS_P2;PMS_P1;PMS_P2;Temp;Humidity;BMP_temperature;BMP_pressure;BME280_temperature;BME280_humidity;BME280_pressure;Samples;Min_cycle;Max_cycle;Signal;HPM_P1;HPM_P2
2022/05/14 00:01:36;;;;;;;4.50;3.83;;;;;;;22.93;44.93;100423.26;1741241;80;21037;-90
2022/05/14 00:04:03;;;;;;;4.85;4.25;;;;;;;22.92;44.93;100418.86;1771001;80;21021;-90
2022/05/14 00:06:35;;;;;;;6.40;4.12;;;;;;;22.94;44.91;100410.20;1770650;79;21463;-90
2022/05/14 00:09:05;;;;;;;4.67;4.10;;;;;;;22.92;44.90;100410.53;1770391;81;21033;-89
2022/05/14 00:14:15;;;;;;;3.85;3.33;;;;;;;22.93;44.92;100416.33;1715529;82;21482;-89
2022/05/14 00:16:41;;;;;;;3.95;3.55;;;;;;;22.92;44.90;100425.79;1733150;81;21001;-90
2022/05/14 00:19:08;;;;;;;4.42;3.90;;;;;;;22.93;44.89;100426.03;1732852;82;21754;-90
2022/05/14 00:21:35;;;;;;;5.00;3.98;;;;;;;22.93;44.90;100423.26;1733467;81;21103;-89
2022/05/14 00:24:03;;;;;;;4.67;3.72;;;;;;;22.91;44.89;100418.65;1712975;82;21035;-90
2022/05/14 00:26:29;;;;;;;4.90;3.95;;;;;;;22.92;44.88;100408.34;1734487;81;21071;-89
2022/05/14 00:28:56;;;;;;;4.62;3.92;;;;;;;22.92;44.87;100409.72;1732629;82;20996;-90
2022/05/14 00:31:22;;;;;;;4.40;4.00;;;;;;;22.91;44.87;100406.16;1714000;82;21123;-89
2022/05/14 00:33:48;;;;;;;5.85;4.55;;;;;;;22.91;44.86;100407.55;1738845;81;21114;-89
2022/05/14 00:36:15;;;;;;;4.40;3.90;;;;;;;22.92;44.84;100408.34;1738723;81;21640;-89
2022/05/14 00:38:41;;;;;;;4.40;3.95;;;;;;;22.92;44.82;100409.72;1738713;81;21015;-89
2022/05/14 00:41:08;;;;;;;5.92;3.72;;;;;;;22.92;44.83;100411.11;1707825;82;21055;-89
2022/05/14 00:43:37;;;;;;;4.17;3.52;;;;;;;22.91;44.82;100408.94;1738936;81;21162;-90
2022/05/14 00:46:17;;;;;;;5.72;4.20;;;;;;;22.92;44.83;100409.72;1736325;82;21056;-89
2022/05/14 00:48:44;;;;;;;;;;;;;;;22.92;44.79;100398.62;1736123;81;21055;-89
2022/05/14 00:51:14;;;;;;;5.05;3.83;;;;;;;22.90;44.80;100395.40;1733573;81;20160;-90
2022/05/14 00:53:47;;;;;;;4.80;3.90;;;;;;;22.90;44.81;100408.70;1733962;82;21613;-89
2022/05/14 00:56:16;;;;;;;4.45;3.90;;;;;;;22.91;44.81;100406.73;1733174;81;21015;-89
2022/05/14 00:59:03;;;;;;;5.00;3.95;;;;;;;22.89;44.79;100411.23;1733458;81;21024;-90
2022/05/14 01:01:30;;;;;;;5.33;4.00;;;;;;;22.89;44.78;100403.48;1734652;81;21096;-89
2022/05/14 01:03:57;;;;;;;5.28;4.08;;;;;;;22.89;44.75;100405.68;1734126;81;21411;-89
2022/05/14 01:06:23;;;;;;;6.45;3.80;;;;;;;22.89;44.76;100410.41;1734183;81;21514;-90
2022/05/14 01:08:49;;;;;;;7.25;4.40;;;;;;;22.89;44.76;100402.91;1711780;82;21887;-90
2022/05/14 01:11:15;;;;;;;5.45;4.10;;;;;;;22.89;44.77;100395.16;1733672;81;21079;-89
2022/05/14 01:13:42;;;;;;;5.10;4.05;;;;;;;22.89;44.75;100393.77;1759195;80;21025;-89
2022/05/14 01:16:14;;;;;;;5.35;4.15;;;;;;;22.89;44.72;100400.13;1763234;80;20990;-90
2022/05/14 01:18:40;;;;;;;4.40;3.75;;;;;;;22.89;44.75;100405.68;1762783;80;21595;-90
2022/05/14 01:21:18;;;;;;;4.28;3.77;;;;;;;22.90;44.75;100412.05;1763230;80;21836;-90
2022/05/14 01:26:58;;;;;;;5.60;4.30;;;;;;;22.89;44.71;100404.87;1762442;80;21072;-90
2022/05/14 01:29:30;;;;;;;4.08;3.67;;;;;;;22.89;44.68;100404.30;1762501;80;21041;-90
2022/05/14 01:31:57;;;;;;;4.83;3.90;;;;;;;22.88;44.67;100401.28;1763000;80;21038;-90
2022/05/14 01:34:32;;;;;;;5.15;3.72;;;;;;;22.88;44.66;100392.14;1739326;81;22096;-90
2022/05/14 01:36:59;;;;;;;4.78;4.08;;;;;;;22.88;44.69;100398.50;1762491;80;21049;-90
2022/05/14 01:39:25;;;;;;;5.55;4.05;;;;;;;22.89;44.65;100396.55;1763022;81;21093;-90
2022/05/14 01:41:51;;;;;;;6.17;4.12;;;;;;;22.88;44.65;100396.30;1763109;81;21040;-90
2022/05/14 01:44:18;;;;;;;6.15;4.45;;;;;;;22.88;44.65;100395.73;1714441;81;21554;-90
2022/05/14 01:46:44;;;;;;;7.35;4.70;;;;;;;22.89;44.63;100388.22;1762748;80;21212;-90
2022/05/14 01:49:11;;;;;;;5.00;4.15;;;;;;;22.88;44.62;100386.59;1739137;81;21009;-89
2022/05/14 01:51:37;;;;;;;4.72;4.20;;;;;;;22.88;44.65;100380.47;1762813;81;21489;-90
2022/05/14 01:54:04;;;;;;;4.65;4.10;;;;;;;22.88;44.62;100372.72;1763036;80;21017;-90
2022/05/14 01:56:30;;;;;;;4.95;3.90;;;;;;;22.89;44.59;100363.26;1762611;80;21088;-90
2022/05/14 01:58:56;;;;;;;5.10;3.80;;;;;;;22.89;44.57;100359.91;1762477;80;21060;-90
2022/05/14 02:01:29;;;;;;;5.35;4.20;;;;;;;22.89;44.57;100360.48;1762707;80;21631;-90
2022/05/14 02:04:00;;;;;;;4.60;3.87;;;;;;;22.88;44.56;100359.67;1762769;80;21037;-90
2022/05/14 02:06:28;;;;;;;4.97;3.87;;;;;;;22.89;44.56;100370.19;1762229;80;21018;-90
2022/05/14 02:08:55;;;;;;;4.10;3.67;;;;;;;22.88;44.57;100372.16;1762778;81;21095;-90
2022/05/14 02:11:21;;;;;;;4.72;3.87;;;;;;;22.88;44.56;100376.31;1763037;81;21401;-90
2022/05/14 02:13:54;;;;;;;4.62;3.87;;;;;;;22.88;44.55;100367.17;1762518;80;21572;-90
2022/05/14 02:16:20;;;;;;;4.97;4.08;;;;;;;22.88;44.54;100371.34;1762797;81;21001;-90
2022/05/14 02:18:47;;;;;;;4.17;3.77;;;;;;;22.89;44.51;100368.80;1762736;81;21053;-90
2022/05/14 02:21:14;;;;;;;4.85;3.95;;;;;;;22.88;44.52;100367.17;1738836;81;21061;-90
2022/05/14 02:23:40;;;;;;;4.92;3.98;;;;;;;22.88;44.50;100363.02;1762777;81;21892;-90
2022/05/14 02:26:09;;;;;;;4.62;4.12;;;;;;;22.89;44.51;100361.88;1739072;81;21575;-90
2022/05/14 02:28:35;;;;;;;4.10;3.70;;;;;;;22.88;44.52;100364.41;1762511;81;21053;-90
2022/05/14 02:31:01;;;;;;;5.22;4.35;;;;;;;22.88;44.51;100361.63;1762696;81;21069;-90
2022/05/14 02:33:28;;;;;;;4.70;4.03;;;;;;;22.88;44.50;100365.79;1763004;80;21507;-90
2022/05/14 02:35:54;;;;;;;4.30;3.90;;;;;;;22.89;44.49;100361.88;1762476;81;21477;-90
2022/05/14 02:38:20;;;;;;;5.25;3.87;;;;;;;22.88;44.50;100356.89;1762951;80;21065;-90
2022/05/14 02:40:47;;;;;;;3.83;3.42;;;;;;;22.88;44.46;100365.79;1762684;80;21025;-90
2022/05/14 02:43:13;;;;;;;4.78;4.00;;;;;;;22.88;44.46;100365.22;1762592;81;21533;-90
2022/05/14 02:45:39;;;;;;;4.45;3.62;;;;;;;22.88;44.48;100361.05;1762870;80;20993;-90
2022/05/14 02:48:06;;;;;;;5.80;3.83;;;;;;;22.87;44.49;100358.08;1762739;81;21788;-90
2022/05/14 02:50:33;;;;;;;4.45;3.65;;;;;;;22.88;44.48;100373.54;1762493;81;20982;-89
2022/05/14 02:53:01;;;;;;;4.85;4.35;;;;;;;22.88;44.48;100392.14;1739026;81;21002;-90
2022/05/14 02:55:27;;;;;;;5.78;3.77;;;;;;;22.88;44.48;100395.73;1739312;81;21041;-90
2022/05/14 02:57:54;;;;;;;4.45;3.70;;;;;;;22.88;44.46;100391.57;1762331;81;21000;-90
2022/05/14 03:00:20;;;;;;;4.60;3.95;;;;;;;22.87;44.46;100395.52;1762734;81;21655;-90
2022/05/14 03:02:47;;;;;;;5.10;4.10;;;;;;;22.87;44.45;100389.97;1762770;81;21008;-90
2022/05/14 03:05:14;;;;;;;5.58;4.10;;;;;;;22.88;44.45;100397.69;1762845;80;21026;-90
2022/05/14 03:07:41;;;;;;;4.35;3.77;;;;;;;22.88;44.45;100392.14;1762779;80;21649;-90
2022/05/14 03:10:07;;;;;;;5.90;4.12;;;;;;;22.88;44.42;100397.12;1762729;80;21506;-90
2022/05/14 03:12:34;;;;;;;4.60;4.00;;;;;;;22.87;44.44;100402.45;1762603;81;21241;-90
2022/05/14 03:15:05;;;;;;;4.33;3.62;;;;;;;22.87;44.45;100398.87;1762737;80;20878;-90
2022/05/14 03:17:37;;;;;;;5.45;3.72;;;;;;;22.87;44.44;100408.00;1762868;80;21104;-90
2022/05/14 03:20:07;;;;;;;4.45;3.90;;;;;;;22.87;44.43;100406.62;1760613;81;21024;-90
2022/05/14 03:22:35;;;;;;;4.17;3.77;;;;;;;22.87;44.43;100412.73;1762725;80;21530;-90
2022/05/14 03:25:01;;;;;;;4.37;3.77;;;;;;;22.88;44.43;100417.11;1762824;80;21071;-90
2022/05/14 03:27:27;;;;;;;6.10;3.80;;;;;;;22.87;44.45;100417.71;1762507;80;21089;-89
2022/05/14 03:29:54;;;;;;;5.35;4.20;;;;;;;22.87;44.46;100409.97;1762615;81;20969;-90
2022/05/14 03:32:20;;;;;;;4.35;3.85;;;;;;;22.86;44.46;100418.86;1739148;81;21061;-90
2022/05/14 03:34:47;;;;;;;5.08;4.08;;;;;;;22.87;44.46;100419.09;1762669;80;21678;-90
2022/05/14 03:37:13;;;;;;;4.92;3.62;;;;;;;22.87;44.45;100418.28;1762858;80;21996;-90
2022/05/14 03:39:39;;;;;;;4.58;4.12;;;;;;;22.87;44.49;100425.22;1762677;81;21316;-90
2022/05/14 03:42:11;;;;;;;4.28;3.87;;;;;;;22.87;44.49;100427.42;1762481;81;21657;-90
2022/05/14 03:44:38;;;;;;;4.33;3.92;;;;;;;22.87;44.50;100427.99;1763141;80;21033;-90
2022/05/14 03:47:04;;;;;;;4.28;3.52;;;;;;;22.87;44.49;100426.61;1739224;81;21088;-90
2022/05/14 03:49:31;;;;;;;5.80;4.15;;;;;;;22.87;44.50;100423.83;1762604;81;21169;-90
2022/05/14 03:51:57;;;;;;;5.10;3.62;;;;;;;22.87;44.52;100434.92;1739239;81;21589;-90
2022/05/14 03:54:23;;;;;;;4.05;3.65;;;;;;;22.87;44.51;100440.47;1763144;81;21013;-90
2022/05/14 03:56:50;;;;;;;4.17;3.65;;;;;;;22.86;44.52;100441.05;1762542;80;21068;-90
2022/05/14 03:59:22;;;;;;;3.83;3.33;;;;;;;22.87;44.52;100443.25;1762761;80;21045;-90
2022/05/14 04:01:48;;;;;;;4.62;3.65;;;;;;;22.86;44.52;100446.59;1762819;81;21431;-90
2022/05/14 04:04:15;;;;;;;5.28;3.70;;;;;;;22.86;44.54;100444.39;1762729;80;21033;-90
2022/05/14 04:06:41;;;;;;;4.58;3.75;;;;;;;22.86;44.55;100452.14;1763153;80;21037;-90
2022/05/14 04:09:07;;;;;;;4.65;3.77;;;;;;;22.87;44.56;100459.32;1739117;81;21650;-90
2022/05/14 04:11:34;;;;;;;4.58;4.03;;;;;;;22.87;44.56;100459.89;1762546;80;21001;-90
2022/05/14 04:14:02;;;;;;;4.45;4.05;;;;;;;22.86;44.57;100459.08;1762718;80;21179;-90
2022/05/14 04:16:28;;;;;;;4.15;3.52;;;;;;;22.86;44.58;100462.42;1762878;81;21045;-90
2022/05/14 04:18:55;;;;;;;4.47;3.50;;;;;;;22.86;44.59;100457.69;1762549;80;21021;-90
2022/05/14 04:21:22;;;;;;;4.53;3.80;;;;;;;22.86;44.60;100455.48;1762742;81;21025;-91
2022/05/14 04:23:48;;;;;;;4.10;3.30;;;;;;;22.85;44.60;100453.28;1763119;80;20986;-90
2022/05/14 04:26:14;;;;;;;4.45;3.80;;;;;;;22.87;44.63;100458.51;1762865;80;21542;-90
2022/05/14 04:28:41;;;;;;;4.35;3.58;;;;;;;22.87;44.63;100461.28;1762799;80;21050;-90
2022/05/14 04:31:07;;;;;;;5.08;3.80;;;;;;;22.86;44.64;100456.30;1762769;80;21041;-90
2022/05/14 04:33:33;;;;;;;4.25;3.60;;;;;;;22.87;44.65;100462.09;1762563;81;21578;-90
2022/05/14 04:36:00;;;;;;;4.28;3.33;;;;;;;22.87;44.64;100466.83;1739254;81;21060;-90
2022/05/14 04:38:26;;;;;;;3.90;3.50;;;;;;;22.87;44.67;100468.22;1762955;81;21025;-90
2022/05/14 04:40:52;;;;;;;4.87;3.27;;;;;;;22.87;44.66;100480.70;1762358;80;21463;-90
2022/05/14 04:43:19;;;;;;;4.22;3.45;;;;;;;22.87;44.70;100484.28;1762956;81;21077;-90
2022/05/14 04:45:45;;;;;;;4.70;3.50;;;;;;;22.87;44.70;100486.24;1763004;80;21033;-90
2022/05/14 04:48:11;;;;;;;5.17;3.87;;;;;;;22.87;44.71;100483.47;1762595;80;21722;-89
2022/05/14 04:50:38;;;;;;;4.35;3.30;;;;;;;22.88;44.72;100490.62;1739193;80;21119;-90
2022/05/14 04:53:05;;;;;;;5.37;3.95;;;;;;;22.88;44.74;100491.44;1762786;80;21607;-90
2022/05/14 04:55:31;;;;;;;5.22;3.90;;;;;;;22.88;44.77;100489.23;1762560;80;20991;-90
2022/05/14 04:57:59;;;;;;;4.80;3.90;;;;;;;22.87;44.80;100485.67;1763034;81;22216;-90
2022/05/14 05:00:25;;;;;;;5.10;3.20;;;;;;;22.88;44.81;100488.66;1762763;81;21946;-90
2022/05/14 05:05:37;;;;;;;4.95;3.80;;;;;;;22.89;44.83;100485.31;1762999;81;21615;-90
2022/05/14 05:08:04;;;;;;;4.97;3.62;;;;;;;22.88;44.85;100491.44;1762620;80;21160;-89
2022/05/14 05:10:30;;;;;;;4.95;3.50;;;;;;;22.88;44.83;100499.75;1762751;80;21077;-90
2022/05/14 05:12:56;;;;;;;3.75;3.27;;;;;;;22.89;44.83;100507.50;1739167;81;21678;-90
2022/05/14 05:15:24;;;;;;;4.90;3.45;;;;;;;22.89;44.82;100511.67;1790853;79;21148;-90
2022/05/14 05:17:50;;;;;;;3.90;3.40;;;;;;;22.89;44.84;100515.83;1796505;79;21071;-90
2022/05/14 05:20:17;;;;;;;4.28;3.58;;;;;;;22.89;44.83;100524.15;1796198;79;21508;-90
2022/05/14 05:22:43;;;;;;;4.10;3.67;;;;;;;22.89;44.75;100530.52;1795832;79;21031;-90
2022/05/14 05:25:10;;;;;;;4.60;3.67;;;;;;;22.88;44.76;100537.20;1765021;79;21074;-90
2022/05/14 05:27:36;;;;;;;4.08;3.52;;;;;;;22.88;44.71;100534.43;1796415;79;20967;-90
2022/05/14 05:30:04;;;;;;;4.85;3.45;;;;;;;22.89;44.74;100531.90;1795666;78;21035;-90
2022/05/14 05:32:30;;;;;;;4.10;3.52;;;;;;;22.89;44.74;100533.86;1764801;79;21012;-90
2022/05/14 05:34:57;;;;;;;4.90;3.27;;;;;;;22.90;44.74;100528.55;1796075;79;21031;-90
2022/05/14 05:37:23;;;;;;;4.35;3.30;;;;;;;22.90;44.70;100531.33;1796046;79;20996;-89
2022/05/14 05:39:49;;;;;;;4.90;3.67;;;;;;;22.89;44.69;100533.86;1796144;79;21533;-90
2022/05/14 05:42:21;;;;;;;4.95;3.22;;;;;;;22.90;44.68;100532.14;1795614;79;21044;-90
2022/05/14 05:44:47;;;;;;;4.20;3.30;;;;;;;22.90;44.68;100535.48;1764796;78;21218;-90
2022/05/14 05:47:14;;;;;;;4.42;3.50;;;;;;;22.90;44.68;100534.92;1782734;79;21449;-90
2022/05/14 05:49:40;;;;;;;3.72;3.22;;;;;;;22.90;44.66;100539.08;1782216;80;21032;-90
2022/05/14 05:52:07;;;;;;;5.97;3.83;;;;;;;22.90;44.67;100539.08;1781898;80;21122;-90
2022/05/14 05:57:18;;;;;;;4.25;3.37;;;;;;;22.90;44.68;100540.47;1782199;79;21463;-90
2022/05/14 05:59:44;;;;;;;4.37;3.50;;;;;;;22.90;44.66;100540.47;1782289;80;21068;-90
2022/05/14 06:02:10;;;;;;;4.33;3.75;;;;;;;22.91;44.63;100541.28;1782390;80;21020;-90
2022/05/14 06:04:37;;;;;;;4.53;3.45;;;;;;;22.92;44.68;100545.66;1760260;80;21462;-90
2022/05/14 06:07:04;;;;;;;3.42;3.10;;;;;;;22.92;44.68;100549.81;1782411;80;21073;-90
2022/05/14 06:09:32;;;;;;;4.30;3.65;;;;;;;22.91;44.67;100554.58;1782424;80;21488;-89
2022/05/14 06:11:58;;;;;;;4.87;3.60;;;;;;;22.92;44.67;100558.95;1781757;80;21013;-90
2022/05/14 06:14:25;;;;;;;3.75;3.27;;;;;;;22.92;44.66;100560.91;1774965;79;21436;-90
2022/05/14 06:16:52;;;;;;;5.55;3.33;;;;;;;22.92;44.66;100566.46;1760003;81;21007;-90
2022/05/14 06:19:18;;;;;;;4.95;3.60;;;;;;;22.93;44.67;100566.70;1759550;81;21022;-90
2022/05/14 06:21:45;;;;;;;3.87;3.33;;;;;;;22.92;44.67;100564.50;1759528;81;21104;-89
2022/05/14 06:24:11;;;;;;;4.08;3.52;;;;;;;22.93;44.68;100566.13;1759817;81;21559;-90
2022/05/14 06:26:38;;;;;;;5.35;3.37;;;;;;;22.92;44.67;100560.34;1759606;81;21607;-89
2022/05/14 06:29:05;;;;;;;4.70;3.30;;;;;;;22.93;44.70;100564.75;1759981;80;21801;-89
2022/05/14 06:31:37;;;;;;;3.52;3.22;;;;;;;22.93;44.69;100563.36;1759257;81;21016;-90
2022/05/14 06:34:03;;;;;;;5.65;3.35;;;;;;;22.93;44.69;100559.20;1738171;81;21336;-90
2022/05/14 06:36:30;;;;;;;4.83;3.45;;;;;;;22.94;44.71;100564.17;1759967;81;21025;-90
2022/05/14 06:38:56;;;;;;;3.90;3.40;;;;;;;22.93;44.74;100564.75;1760088;81;21053;-90
2022/05/14 06:43:55;;;;;;;4.75;3.52;;;;;;;22.99;44.78;100562.59;1888217;76;22032;-77
2022/05/14 06:46:21;;;;;;;5.35;3.50;;;;;;;22.95;44.84;100563.03;1859366;77;21529;-77
2022/05/14 06:48:47;;;;;;;5.00;4.00;;;;;;;22.95;44.88;100559.69;1859313;77;21468;-77
2022/05/14 06:51:23;;;;;;;3.62;3.12;;;;;;;22.95;44.90;100561.07;1859109;77;21007;-77
2022/05/14 06:53:51;;;;;;;3.72;3.17;;;;;;;22.95;44.91;100563.03;1859087;77;20885;-77
2022/05/14 06:56:17;;;;;;;3.12;2.83;;;;;;;22.95;44.93;100559.69;1859494;77;21509;-77
2022/05/14 06:58:44;;;;;;;3.60;3.12;;;;;;;22.95;44.92;100556.91;1859714;77;20984;-78
2022/05/14 07:01:10;;;;;;;4.67;3.37;;;;;;;22.95;44.91;100552.75;1858788;77;21122;-78
2022/05/14 07:06:39;;;;;;;4.58;3.02;;;;;;;22.96;44.90;100553.53;1859017;77;20873;-78
2022/05/14 07:09:15;;;;;;;3.72;3.25;;;;;;;22.96;44.92;100549.37;1859299;77;21047;-77
2022/05/14 07:11:46;;;;;;;4.20;3.40;;;;;;;22.95;44.94;100556.91;1858644;77;21106;-77
2022/05/14 07:14:13;;;;;;;3.67;3.33;;;;;;;22.96;44.94;100559.08;1859749;77;21534;-78
2022/05/14 07:16:40;;;;;;;4.25;3.40;;;;;;;22.96;44.94;100554.92;1859394;77;21111;-78
2022/05/14 07:19:06;;;;;;;4.17;3.15;;;;;;;22.96;44.95;100554.92;1859098;77;21028;-77
2022/05/14 07:21:41;;;;;;;4.08;3.02;;;;;;;22.96;44.99;100560.47;1858822;77;21541;-80
2022/05/14 07:24:09;;;;;;;4.80;3.37;;;;;;;22.96;45.00;100564.05;1859054;77;21091;-80
2022/05/14 07:26:36;;;;;;;4.65;3.40;;;;;;;22.97;45.00;100566.27;1858886;77;21209;-80
2022/05/14 07:29:08;;;;;;;4.17;3.25;;;;;;;22.97;44.99;100567.65;1859338;77;21040;-80
2022/05/14 07:31:34;;;;;;;4.92;3.40;;;;;;;22.98;44.98;100572.05;1859199;77;21036;-80
2022/05/14 07:34:02;;;;;;;3.95;3.10;;;;;;;22.96;44.97;100572.38;1853704;77;21427;-80
2022/05/14 07:36:29;;;;;;;4.70;3.33;;;;;;;22.98;44.96;100573.44;1859330;76;21052;-80
2022/05/14 07:38:58;;;;;;;3.72;3.40;;;;;;;22.98;44.96;100570.66;1826633;77;21078;-80
2022/05/14 07:41:25;;;;;;;4.12;3.27;;;;;;;22.98;44.98;100572.05;1858993;77;21051;-80
2022/05/14 07:43:52;;;;;;;4.42;3.58;;;;;;;22.97;44.99;100568.47;1849068;76;21031;-81
2022/05/14 07:46:22;;;;;;;3.40;3.08;;;;;;;22.99;44.99;100568.14;1847774;77;21009;-80
2022/05/14 07:48:49;;;;;;;3.30;3.00;;;;;;;22.98;44.99;100571.48;1847804;77;21495;-80
2022/05/14 07:51:15;;;;;;;3.80;3.12;;;;;;;22.98;44.98;100569.28;1847556;77;21178;-80
2022/05/14 07:53:41;;;;;;;4.97;3.33;;;;;;;22.98;45.00;100572.87;1823822;77;21065;-80
2022/05/14 07:56:09;;;;;;;3.87;3.35;;;;;;;22.99;44.99;100572.30;1846763;77;21636;-80
2022/05/14 07:58:37;;;;;;;3.80;3.40;;;;;;;22.98;45.00;100574.26;1846944;77;21032;-80
2022/05/14 08:01:04;;;;;;;3.90;3.30;;;;;;;22.99;45.00;100566.75;1822744;77;21105;-80
2022/05/14 08:03:30;;;;;;;3.95;3.25;;;;;;;23.00;44.99;100570.55;1846668;77;21123;-80
2022/05/14 08:05:57;;;;;;;3.80;3.15;;;;;;;22.99;44.98;100563.97;1846873;77;21012;-80
2022/05/14 08:08:23;;;;;;;3.90;3.37;;;;;;;23.01;44.98;100571.37;1847214;77;21475;-80
2022/05/14 08:10:51;;;;;;;3.72;3.22;;;;;;;23.01;44.99;100563.86;1823204;77;21001;-80
2022/05/14 08:13:19;;;;;;;3.67;3.10;;;;;;;23.00;44.99;100562.23;1847038;77;21723;-80
2022/05/14 08:15:46;;;;;;;3.50;3.20;;;;;;;23.01;44.98;100563.04;1847016;77;21799;-80
2022/05/14 08:18:13;;;;;;;5.60;3.30;;;;;;;23.02;44.98;100568.83;1851297;77;21405;-80
2022/05/14 08:20:39;;;;;;;3.87;3.37;;;;;;;23.02;44.98;100566.06;1847036;77;21044;-80
2022/05/14 08:25:50;;;;;;;4.10;3.42;;;;;;;23.02;44.98;100573.00;1819912;77;21475;-80
2022/05/14 08:28:16;;;;;;;4.00;3.30;;;;;;;23.02;44.96;100571.61;1847045;77;21132;-80
2022/05/14 08:30:43;;;;;;;3.62;3.33;;;;;;;23.02;44.97;100567.45;1846930;77;21037;-80
2022/05/14 08:33:09;;;;;;;3.22;2.90;;;;;;;23.02;44.96;100568.83;1823260;77;21558;-80
2022/05/14 08:35:36;;;;;;;3.08;2.70;;;;;;;23.02;44.96;100571.61;1846897;77;21076;-81
2022/05/14 08:38:02;;;;;;;3.60;3.10;;;;;;;23.02;44.96;100573.00;1823667;77;21099;-81
2022/05/14 08:40:37;;;;;;;3.10;2.80;;;;;;;23.02;44.96;100567.45;1846557;77;21688;-80
2022/05/14 08:43:09;;;;;;;4.28;2.95;;;;;;;23.02;44.95;100567.45;1843336;77;21099;-80
2022/05/14 08:45:37;;;;;;;4.08;3.20;;;;;;;23.02;44.95;100571.61;1829840;78;21044;-80
2022/05/14 08:48:14;;;;;;;4.08;3.62;;;;;;;23.03;44.94;100569.89;1830287;78;20974;-80
2022/05/14 08:50:41;;;;;;;3.35;2.95;;;;;;;23.02;44.91;100573.00;1830094;77;21080;-80
2022/05/14 08:53:11;;;;;;;4.05;3.00;;;;;;;23.02;44.91;100566.88;1830299;78;21205;-80
2022/05/14 08:55:57;;;;;;;3.70;3.30;;;;;;;23.02;44.91;100571.03;1830178;77;21565;-80
2022/05/14 08:58:43;;;;;;;3.70;2.90;;;;;;;23.02;44.89;100568.27;1829180;78;21040;-80
2022/05/14 09:01:09;;;;;;;3.47;2.90;;;;;;;23.02;44.88;100561.90;1830248;78;21530;-80
2022/05/14 09:03:35;;;;;;;3.85;3.22;;;;;;;23.02;44.86;100569.65;1834487;77;21021;-80
2022/05/14 09:06:02;;;;;;;3.67;3.02;;;;;;;23.02;44.82;100564.10;1830153;77;21137;-80
2022/05/14 09:08:28;;;;;;;4.28;2.92;;;;;;;23.03;44.83;100574.62;1834659;77;21021;-80
2022/05/14 09:11:11;;;;;;;4.03;3.12;;;;;;;23.02;44.82;100568.83;1830092;78;21214;-80
2022/05/14 09:13:45;;;;;;;3.25;2.95;;;;;;;23.03;44.80;100569.89;1829660;78;21049;-80
2022/05/14 09:16:33;;;;;;;3.55;3.00;;;;;;;23.03;44.77;100566.30;1830034;78;21002;-81
2022/05/14 09:19:00;;;;;;;3.90;3.00;;;;;;;23.02;44.76;100563.28;1830224;77;21944;-81
2022/05/14 09:21:30;;;;;;;3.55;2.83;;;;;;;23.01;44.74;100566.63;1829848;77;20957;-80
2022/05/14 09:24:03;;;;;;;3.80;3.12;;;;;;;23.02;44.71;100565.48;1834468;78;21049;-80
2022/05/14 09:26:34;;;;;;;3.80;3.40;;;;;;;23.03;44.70;100564.34;1830007;78;21531;-80
2022/05/14 09:29:20;;;;;;;;;;;;;;;23.03;44.68;100564.91;1832963;78;21037;-80
2022/05/14 09:32:02;;;;;;;3.55;2.47;;;;;;;23.02;44.67;100569.65;1829860;78;21105;-80
2022/05/14 09:34:29;;;;;;;4.15;3.37;;;;;;;23.01;44.67;100563.86;1829930;78;21041;-80
2022/05/14 09:37:11;;;;;;;3.50;2.98;;;;;;;23.01;44.64;100569.41;1829781;78;21036;-81
2022/05/14 09:39:43;;;;;;;3.00;2.70;;;;;;;23.02;44.64;100566.88;1808063;78;21088;-80
2022/05/14 09:42:50;;;;;;;3.20;2.90;;;;;;;23.02;44.64;100570.22;1829740;77;21073;-80
2022/05/14 09:45:35;;;;;;;4.03;3.00;;;;;;;23.02;44.61;100574.38;1830287;77;21464;-80
2022/05/14 09:48:20;;;;;;;3.83;3.10;;;;;;;23.02;44.58;100564.67;1829963;78;21013;-80
2022/05/14 09:50:54;;;;;;;3.25;2.90;;;;;;;23.02;44.56;100554.96;1830059;78;21111;-80
2022/05/14 09:53:36;;;;;;;4.70;3.37;;;;;;;23.02;44.55;100563.28;1829670;78;21001;-80
2022/05/14 09:56:10;;;;;;;3.50;3.20;;;;;;;23.02;44.56;100564.67;1828187;78;21057;-80
2022/05/14 09:59:14;;;;;;;3.50;2.67;;;;;;;23.02;44.55;100566.06;1830027;77;21865;-80
2022/05/14 10:01:45;;;;;;;3.60;3.20;;;;;;;23.03;44.54;100566.30;1829952;78;21013;-81
2022/05/14 10:04:29;;;;;;;3.40;2.85;;;;;;;23.03;44.52;100557.98;1829858;78;21080;-80
2022/05/14 10:07:03;;;;;;;3.45;3.00;;;;;;;23.02;44.53;100557.16;1829879;78;21037;-80
2022/05/14 10:10:06;;;;;;;3.40;2.98;;;;;;;23.03;44.53;100565.73;1830319;78;21108;-80
2022/05/14 10:12:40;;;;;;;2.90;2.60;;;;;;;23.03;44.52;100562.14;1830174;77;21130;-80
2022/05/14 10:15:38;;;;;;;3.67;3.10;;;;;;;23.03;44.50;100557.41;1832702;78;21105;-80
2022/05/14 10:18:25;;;;;;;3.25;2.67;;;;;;;23.03;44.52;100558.80;1830140;77;21044;-80
2022/05/14 10:21:03;;;;;;;3.22;2.70;;;;;;;23.02;44.51;100557.73;1829901;78;21028;-80
2022/05/14 10:27:33;;;;;;;3.37;2.72;;;;;;;23.03;44.50;100562.14;1827172;78;21899;-81
2022/05/14 10:30:29;;;;;;;3.15;2.85;;;;;;;23.03;44.49;100556.59;1830156;78;21555;-80
2022/05/14 10:33:04;;;;;;;3.42;2.58;;;;;;;23.03;44.48;100557.41;1829479;78;21076;-80
2022/05/14 10:35:52;;;;;;;3.05;2.67;;;;;;;23.02;44.48;100550.23;1806704;78;21020;-80
2022/05/14 10:38:33;;;;;;;3.17;2.87;;;;;;;23.02;44.48;100548.02;1829616;77;20989;-80
2022/05/14 10:41:02;;;;;;;;;;;;;;;23.02;44.48;100553.00;1832906;77;21021;-80
2022/05/14 10:43:43;;;;;;;3.05;2.75;;;;;;;23.01;44.49;100547.20;1831849;77;20159;-80
2022/05/14 10:46:11;;;;;;;;;;;;;;;23.00;44.52;100551.12;1844199;77;21021;-80
2022/05/14 10:48:58;;;;;;;4.53;2.50;;;;;;;23.01;44.52;100545.01;1845591;77;20257;-80
2022/05/14 10:51:28;;;;;;;3.98;2.67;;;;;;;23.01;44.54;100538.07;1846996;77;21029;-80
2022/05/14 10:53:55;;;;;;;3.20;2.90;;;;;;;23.01;44.54;100535.30;1846918;77;21134;-81
2022/05/14 10:56:34;;;;;;;3.25;2.70;;;;;;;23.01;44.55;100545.82;1846914;77;21017;-80
2022/05/14 10:59:06;;;;;;;4.08;2.92;;;;;;;23.02;44.54;100539.70;1845216;77;21446;-80
2022/05/14 11:01:56;;;;;;;3.08;2.75;;;;;;;23.03;44.55;100537.17;1846927;77;21636;-80
2022/05/14 11:04:30;;;;;;;4.35;3.20;;;;;;;23.02;44.55;100544.67;1846907;77;21075;-80
2022/05/14 11:07:02;;;;;;;3.33;3.02;;;;;;;23.03;44.55;100537.17;1846714;77;21793;-81
2022/05/14 11:09:47;;;;;;;3.12;2.77;;;;;;;23.04;44.55;100536.02;1846551;77;20961;-80
2022/05/14 11:12:25;;;;;;;3.15;2.85;;;;;;;23.03;44.53;100528.27;1846765;77;20993;-81
2022/05/14 11:14:55;;;;;;;3.70;2.95;;;;;;;23.04;44.53;100527.70;1846615;77;21087;-80
2022/05/14 11:17:24;;;;;;;3.42;3.12;;;;;;;23.05;44.54;100532.08;1846613;77;21043;-80
2022/05/14 11:19:53;;;;;;;3.50;3.20;;;;;;;23.04;44.50;100524.32;1847136;77;21586;-80
2022/05/14 11:22:27;;;;;;;3.37;2.70;;;;;;;23.06;44.52;100522.03;1846494;77;21060;-80
2022/05/14 11:24:54;;;;;;;3.20;2.90;;;;;;;23.06;44.51;100528.16;1846821;77;21056;-81
2022/05/14 11:27:31;;;;;;;4.28;3.00;;;;;;;23.07;44.47;100520.89;1846650;77;21557;-80
2022/05/14 11:30:09;;;;;;;3.40;3.10;;;;;;;23.08;44.48;100517.54;1846580;77;21037;-80
2022/05/14 11:32:49;;;;;;;4.10;3.25;;;;;;;23.07;44.48;100519.50;1844955;77;21067;-80
2022/05/14 11:35:15;;;;;;;3.87;2.90;;;;;;;23.08;44.46;100515.58;1846002;77;21020;-80
2022/05/14 11:37:45;;;;;;;4.08;2.90;;;;;;;23.08;44.45;100517.54;1846952;77;21520;-80
2022/05/14 11:40:23;;;;;;;3.33;2.65;;;;;;;23.09;44.45;100506.66;1823696;77;21025;-80
2022/05/14 11:43:10;;;;;;;4.45;3.25;;;;;;;23.08;44.45;100521.13;1846667;77;20968;-80
2022/05/14 11:45:40;;;;;;;3.95;2.95;;;;;;;23.09;44.43;100513.59;1847248;77;21974;-80
2022/05/14 11:48:20;;;;;;;3.30;2.65;;;;;;;23.09;44.42;100511.63;1844035;77;21123;-80
2022/05/14 11:51:42;;;;;;;4.65;3.27;;;;;;;23.10;44.43;100512.45;1834742;77;21060;-80
2022/05/14 11:54:19;;;;;;;4.25;2.98;;;;;;;23.10;44.38;100511.06;1830114;78;21527;-80
2022/05/14 11:57:12;;;;;;;3.27;2.83;;;;;;;23.10;44.31;100508.28;1830179;78;21544;-81
2022/05/14 11:59:53;;;;;;;3.10;2.80;;;;;;;23.10;44.31;100506.32;1827681;78;21181;-80
2022/05/14 12:02:53;;;;;;;3.50;2.90;;;;;;;23.10;44.31;100504.13;1830150;78;25107;-80
2022/05/14 12:05:32;;;;;;;3.47;2.98;;;;;;;23.09;44.29;100507.47;1830171;78;20961;-80